KBXA/BXA METAR and TAF weather

Enter ICAO airport designator
Station Type Date Time Source
KBXA METAR 2020/11/27 02:35 UTC NOAA

KBXA 270235Z AUTO 00000KT 3/4SM VV005 18/17 A3008 RMK AO2 T01830170


Station Type Date Time Source
KBXA Decoded METAR 2020/11/27 02:35 UTC NOAA

Bogalusa, George R Carr Memorial Air Field, LA, United States (KBXA) 30-48-49N 089-51-53W
Nov 26, 2020 - 09:35 PM EST / 2020.11.27 0235 UTC
Wind: Calm:0
Visibility: 3/4 mile(s):0
Sky conditions: obscured
Temperature: 64.9 F (18.3 C)
Dew Point: 62.6 F (17.0 C)
Relative Humidity: 92%
Pressure (altimeter): 30.08 in. Hg (1018 hPa)
ob: KBXA 270235Z AUTO 00000KT 3/4SM VV005 18/17 A3008 RMK AO2 T01830170
cycle: 2

Station Type Date Time Source
KBXA TAF UTC NOAA

Error!

Example: see airport list